createdAt,value
2023-03-22T00:02:07.188Z,33.30
2023-03-22T00:04:34.800Z,35.10
2023-03-22T00:07:02.338Z,33.20
2023-03-22T00:09:30.946Z,31.90
2023-03-22T00:11:58.507Z,32.10
2023-03-22T00:14:25.972Z,31.50
2023-03-22T00:16:53.582Z,31.80
2023-03-22T00:19:21.081Z,31.50
2023-03-22T00:21:48.644Z,29.30
2023-03-22T00:24:16.062Z,27.30
2023-03-22T00:26:43.545Z,27.60
2023-03-22T00:29:11.853Z,27.20
2023-03-22T00:31:39.404Z,26.10
2023-03-22T00:34:07.095Z,26.20
2023-03-22T00:36:34.707Z,25.30
2023-03-22T00:39:04.735Z,27.40
2023-03-22T00:41:32.451Z,26.90
2023-03-22T00:44:00.216Z,27.20
2023-03-22T00:46:27.913Z,25.30
2023-03-22T00:48:55.548Z,28.40
2023-03-22T00:51:24.272Z,26.60
2023-03-22T00:53:53.879Z,27.00
2023-03-22T00:56:22.870Z,25.70
2023-03-22T00:58:50.392Z,25.10
2023-03-22T01:01:17.905Z,28.30
2023-03-22T01:03:54.457Z,28.10
2023-03-22T01:06:23.399Z,24.10
2023-03-22T01:08:51.187Z,27.70
2023-03-22T01:11:18.893Z,24.90
2023-03-22T01:13:47.864Z,25.90
2023-03-22T01:16:16.028Z,27.30
2023-03-22T01:18:44.462Z,29.80
2023-03-22T01:21:12.178Z,25.90
2023-03-22T01:23:39.917Z,27.10
2023-03-22T01:26:07.874Z,26.50
2023-03-22T01:28:35.451Z,26.90
2023-03-22T01:31:04.070Z,29.40
2023-03-22T01:36:16.216Z,31.40
2023-03-22T01:38:43.858Z,27.00
2023-03-22T01:41:11.806Z,28.80
2023-03-22T01:43:39.388Z,28.10
2023-03-22T01:46:08.681Z,26.20
2023-03-22T01:48:48.503Z,27.60
2023-03-22T01:51:22.017Z,29.50
2023-03-22T01:53:52.892Z,31.40
2023-03-22T01:56:31.068Z,28.20
2023-03-22T01:58:59.164Z,30.30
2023-03-22T02:01:27.369Z,40.00
2023-03-22T02:04:03.753Z,32.70
2023-03-22T02:06:32.635Z,30.30
2023-03-22T02:09:00.181Z,31.20
2023-03-22T02:11:38.544Z,33.30
2023-03-22T02:14:14.936Z,30.20
2023-03-22T02:16:42.369Z,33.00
2023-03-22T02:19:42.414Z,31.80
2023-03-22T02:22:40.691Z,29.20
2023-03-22T02:25:26.511Z,31.60
2023-03-22T02:28:10.144Z,30.60
2023-03-22T02:31:00.373Z,28.70
2023-03-22T02:34:17.483Z,29.00
2023-03-22T02:37:03.788Z,29.20
2023-03-22T02:39:41.061Z,30.70
2023-03-22T02:42:28.463Z,27.90
2023-03-22T02:45:33.789Z,37.30
2023-03-22T02:48:09.486Z,31.10
2023-03-22T02:50:59.830Z,31.60
2023-03-22T02:53:37.403Z,32.80
2023-03-22T02:56:12.427Z,31.40
2023-03-22T02:58:47.979Z,31.30
2023-03-22T03:01:23.946Z,32.80
2023-03-22T03:03:56.632Z,31.40
2023-03-22T03:06:28.851Z,28.90
2023-03-22T03:08:58.474Z,29.00
2023-03-22T03:11:26.057Z,33.00
2023-03-22T03:13:53.665Z,30.10
2023-03-22T03:16:26.598Z,31.10
2023-03-22T03:19:01.105Z,33.30
2023-03-22T03:21:42.517Z,33.60
2023-03-22T03:24:42.226Z,33.40
2023-03-22T03:27:28.163Z,31.10
2023-03-22T03:30:13.919Z,32.00
2023-03-22T03:32:52.428Z,34.90
2023-03-22T03:35:23.280Z,30.60
2023-03-22T03:37:53.710Z,31.00
2023-03-22T03:40:28.633Z,31.30
2023-03-22T03:42:59.050Z,31.70
2023-03-22T03:45:26.725Z,28.80
2023-03-22T03:47:59.326Z,30.90
2023-03-22T03:50:28.491Z,39.20
2023-03-22T03:52:56.496Z,37.20
2023-03-22T03:55:26.919Z,33.00
2023-03-22T03:57:54.643Z,34.40
2023-03-22T04:00:22.350Z,31.30
2023-03-22T04:02:49.900Z,33.90
2023-03-22T04:05:17.617Z,35.60
2023-03-22T04:07:45.366Z,35.60
2023-03-22T04:10:12.815Z,34.50
2023-03-22T04:12:43.513Z,32.60
2023-03-22T04:15:12.427Z,32.10
2023-03-22T04:17:41.045Z,31.70
2023-03-22T04:20:11.904Z,33.50
2023-03-22T04:22:40.675Z,29.10
2023-03-22T04:25:12.021Z,32.90
2023-03-22T04:27:41.063Z,30.10
2023-03-22T04:30:12.817Z,30.80
2023-03-22T04:32:40.661Z,30.30
2023-03-22T04:35:08.434Z,33.50
2023-03-22T04:37:36.578Z,36.40
2023-03-22T04:40:08.412Z,33.20
2023-03-22T04:42:36.277Z,35.40
2023-03-22T04:45:04.238Z,34.10
2023-03-22T04:47:31.769Z,40.30
2023-03-22T04:49:59.443Z,35.80
2023-03-22T04:52:27.132Z,38.10
2023-03-22T04:54:54.665Z,39.30
2023-03-22T04:57:22.626Z,39.30
2023-03-22T04:59:50.465Z,36.70
2023-03-22T05:02:18.374Z,36.90
2023-03-22T05:04:46.163Z,34.80
2023-03-22T05:07:13.902Z,35.50
2023-03-22T05:09:41.631Z,34.80
2023-03-22T05:12:09.466Z,32.40
2023-03-22T05:14:37.104Z,36.90
2023-03-22T05:17:05.044Z,38.90
2023-03-22T05:19:33.026Z,34.20
2023-03-22T05:22:01.984Z,36.20
2023-03-22T05:24:49.418Z,34.50
2023-03-22T05:27:17.141Z,32.40
2023-03-22T05:29:45.119Z,37.10
2023-03-22T05:32:12.686Z,37.00
2023-03-22T05:34:41.833Z,32.40
2023-03-22T05:37:09.338Z,34.10
2023-03-22T05:39:36.858Z,33.40
2023-03-22T05:42:04.456Z,34.90
2023-03-22T05:44:31.936Z,36.00
2023-03-22T05:46:59.723Z,33.20
2023-03-22T05:49:27.397Z,35.30
2023-03-22T05:51:55.164Z,36.90
2023-03-22T05:54:22.850Z,36.10
2023-03-22T05:56:52.715Z,32.90
2023-03-22T05:59:21.518Z,37.50
2023-03-22T06:01:49.128Z,33.40
2023-03-22T06:04:16.622Z,31.40
2023-03-22T06:06:44.196Z,42.20
2023-03-22T06:09:17.634Z,37.10
2023-03-22T06:11:47.184Z,36.00
2023-03-22T06:14:15.832Z,37.80
2023-03-22T06:16:43.464Z,37.40
2023-03-22T06:19:11.029Z,37.80
2023-03-22T06:21:38.626Z,44.60
2023-03-22T06:24:06.455Z,78.60
2023-03-22T06:26:34.070Z,111.10
2023-03-22T06:29:03.594Z,65.70
2023-03-22T06:31:31.157Z,173.90
2023-03-22T06:33:58.792Z,128.40
2023-03-22T06:36:26.448Z,85.60
2023-03-22T06:38:57.323Z,199.80
2023-03-22T06:41:27.673Z,51.20
2023-03-22T06:43:55.916Z,157.60
2023-03-22T06:46:26.075Z,80.50
2023-03-22T06:49:02.724Z,140.20
2023-03-22T06:51:35.177Z,163.80
2023-03-22T06:54:02.970Z,55.80
2023-03-22T06:56:30.758Z,88.30
2023-03-22T06:58:58.503Z,55.90
2023-03-22T07:01:29.104Z,51.30
2023-03-22T07:03:57.111Z,46.70
2023-03-22T07:06:25.154Z,42.70
2023-03-22T07:08:53.905Z,43.90
2023-03-22T07:11:21.880Z,46.50
2023-03-22T07:13:50.055Z,47.80
2023-03-22T07:16:20.211Z,47.50
2023-03-22T07:18:48.330Z,47.80
2023-03-22T07:21:16.131Z,39.50
2023-03-22T07:23:44.108Z,44.70
2023-03-22T07:26:13.465Z,45.20
2023-03-22T07:28:44.707Z,45.80
2023-03-22T07:31:14.078Z,45.30
2023-03-22T07:33:41.923Z,43.80
2023-03-22T07:36:11.327Z,49.30
2023-03-22T07:38:39.378Z,78.00
2023-03-22T07:41:07.038Z,216.40
2023-03-22T07:43:47.321Z,116.20
2023-03-22T07:46:20.443Z,113.60
2023-03-22T07:48:48.133Z,76.10
2023-03-22T07:51:16.194Z,68.90
2023-03-22T07:53:44.294Z,57.00
2023-03-22T07:56:11.972Z,61.50
2023-03-22T07:58:41.800Z,169.40
2023-03-22T08:01:12.791Z,77.80
2023-03-22T08:03:43.462Z,62.80
2023-03-22T08:06:12.823Z,53.90
2023-03-22T08:08:40.730Z,49.40
2023-03-22T08:11:08.479Z,51.70
2023-03-22T08:13:36.284Z,54.90
2023-03-22T08:16:04.735Z,53.50
2023-03-22T08:18:32.528Z,51.40
2023-03-22T08:21:02.066Z,73.20
2023-03-22T08:23:40.918Z,76.70
2023-03-22T08:26:11.278Z,67.20
2023-03-22T08:28:39.106Z,69.50
2023-03-22T08:31:16.506Z,72.00
2023-03-22T08:33:45.867Z,70.70
2023-03-22T08:36:17.783Z,64.60
2023-03-22T08:38:45.649Z,64.90
2023-03-22T08:41:16.170Z,58.40
2023-03-22T08:43:44.217Z,59.10
2023-03-22T08:46:12.123Z,57.80
2023-03-22T08:48:41.729Z,63.70
2023-03-22T08:51:09.396Z,55.20
2023-03-22T08:53:37.194Z,64.00
2023-03-22T08:56:10.794Z,60.00
2023-03-22T08:58:38.768Z,56.60
2023-03-22T09:01:10.418Z,56.70
2023-03-22T09:03:39.283Z,54.30
2023-03-22T09:06:11.845Z,65.70
2023-03-22T09:08:45.285Z,62.20
2023-03-22T09:11:18.174Z,67.20
2023-03-22T09:13:52.390Z,60.20
2023-03-22T09:16:21.772Z,64.90
2023-03-22T09:18:51.067Z,64.70
2023-03-22T09:21:22.515Z,64.70
2023-03-22T09:23:50.568Z,70.70
2023-03-22T09:26:18.810Z,63.70
2023-03-22T09:28:46.840Z,66.40
2023-03-22T09:31:19.793Z,69.00
2023-03-22T09:33:48.465Z,68.80
2023-03-22T09:36:16.634Z,74.80
2023-03-22T09:38:48.541Z,69.30
2023-03-22T09:41:35.660Z,69.00
2023-03-22T09:44:14.349Z,65.40
2023-03-22T09:46:50.163Z,66.10
2023-03-22T09:49:26.319Z,77.40
2023-03-22T09:51:55.771Z,74.30
2023-03-22T09:54:31.871Z,70.00
2023-03-22T09:57:04.241Z,70.80
2023-03-22T09:59:57.070Z,74.00
2023-03-22T10:02:58.588Z,73.20
2023-03-22T10:05:39.018Z,67.20
2023-03-22T10:08:23.347Z,68.90
2023-03-22T10:10:53.122Z,70.90
2023-03-22T10:13:27.053Z,71.90
2023-03-22T10:16:02.076Z,84.70
2023-03-22T10:18:55.005Z,76.70
2023-03-22T10:21:26.556Z,83.90
2023-03-22T10:24:17.232Z,79.70
2023-03-22T10:26:49.682Z,71.20
2023-03-22T10:29:40.647Z,78.90
2023-03-22T10:32:17.834Z,79.90
2023-03-22T10:34:49.693Z,74.50
2023-03-22T10:37:25.151Z,87.70
2023-03-22T10:39:56.746Z,64.60
2023-03-22T10:42:28.935Z,73.50
2023-03-22T10:45:08.544Z,71.10
2023-03-22T10:47:41.292Z,66.90
2023-03-22T10:50:28.625Z,74.40
2023-03-22T10:53:02.162Z,76.20
2023-03-22T10:55:30.372Z,70.20
2023-03-22T10:58:18.394Z,69.40
2023-03-22T11:00:53.195Z,68.70
2023-03-22T11:03:44.390Z,68.50
2023-03-22T11:06:15.977Z,66.00
2023-03-22T11:09:01.708Z,62.30
2023-03-22T11:11:49.546Z,68.50
2023-03-22T11:14:21.068Z,68.80
2023-03-22T11:16:59.530Z,57.10
2023-03-22T11:19:58.996Z,62.70
2023-03-22T11:22:47.021Z,64.80
2023-03-22T11:25:20.821Z,54.00
2023-03-22T11:28:05.822Z,53.40
2023-03-22T11:30:34.636Z,56.30
2023-03-22T11:33:19.063Z,66.80
2023-03-22T11:35:55.241Z,74.00
2023-03-22T11:38:29.676Z,64.10
2023-03-22T11:41:11.747Z,69.80
2023-03-22T11:43:48.638Z,69.40
2023-03-22T11:46:21.970Z,68.00
2023-03-22T11:49:01.332Z,72.90
2023-03-22T11:51:42.466Z,79.60
2023-03-22T11:54:29.523Z,88.20
2023-03-22T11:57:06.262Z,82.50
2023-03-22T11:59:39.821Z,62.40
2023-03-22T12:02:32.843Z,82.00
2023-03-22T12:05:17.054Z,111.30
2023-03-22T12:07:46.920Z,129.30
2023-03-22T12:10:29.092Z,66.20
2023-03-22T12:13:07.246Z,64.50
2023-03-22T12:15:45.722Z,63.10
2023-03-22T12:18:45.872Z,50.70
2023-03-22T12:21:15.748Z,62.90
2023-03-22T12:24:16.012Z,55.90
2023-03-22T12:27:02.877Z,45.00
2023-03-22T12:29:35.868Z,48.10
2023-03-22T12:32:10.920Z,44.40
2023-03-22T12:34:43.613Z,50.00
2023-03-22T12:37:18.173Z,45.30
2023-03-22T12:40:00.108Z,44.60
2023-03-22T12:42:56.659Z,39.80
2023-03-22T12:45:29.121Z,46.40
2023-03-22T12:48:21.053Z,55.00
2023-03-22T12:51:01.309Z,67.50
2023-03-22T12:53:42.214Z,75.40
2023-03-22T12:56:17.685Z,64.90
2023-03-22T12:58:53.050Z,65.00
2023-03-22T13:01:33.387Z,47.60
2023-03-22T13:04:37.713Z,64.70
2023-03-22T13:07:16.551Z,54.50
2023-03-22T13:09:53.249Z,40.90
2023-03-22T13:12:22.330Z,55.00
2023-03-22T13:14:50.390Z,43.10
2023-03-22T13:17:24.948Z,53.40
2023-03-22T13:20:18.367Z,42.50
2023-03-22T13:22:57.512Z,36.50
2023-03-22T13:25:38.976Z,89.90
2023-03-22T13:28:26.229Z,179.80
2023-03-22T13:30:58.761Z,49.00
2023-03-22T13:33:35.238Z,65.80
2023-03-22T13:36:26.335Z,57.40
2023-03-22T13:39:00.156Z,38.00
2023-03-22T13:41:34.647Z,40.50
2023-03-22T13:44:29.638Z,110.10
2023-03-22T13:47:08.791Z,48.80
2023-03-22T13:49:57.886Z,46.40
2023-03-22T13:53:06.783Z,45.50
2023-03-22T13:55:41.909Z,32.90
2023-03-22T13:58:39.727Z,78.70
2023-03-22T14:01:25.637Z,73.20
2023-03-22T14:04:06.883Z,212.20
2023-03-22T14:06:55.062Z,106.20
2023-03-22T14:09:34.143Z,138.70
2023-03-22T14:12:32.512Z,159.80
2023-03-22T14:15:07.389Z,44.40
2023-03-22T14:17:56.951Z,63.00
2023-03-22T14:20:30.343Z,60.50
